Time;durP1;ratioP1;P1;durP2;ratioP2;P2;SDS_P1;SDS_P2;PMS_P1;PMS_P2;Temp;Humidity;BMP_temperature;BMP_pressure;BME280_temperature;BME280_humidity;BME280_pressure;Samples;Min_cycle;Max_cycle;Signal;HPM_P1;HPM_P2
2023/01/20 00:01:36;;;;;;;47.15;17.92;;;;;;;1.07;98.02;100590.88;5075790;28;20516;-51
2023/01/20 00:04:04;;;;;;;40.95;17.15;;;;;;;0.98;97.85;100581.84;5075870;28;20064;-50
2023/01/20 00:06:31;;;;;;;49.85;18.08;;;;;;;1.06;98.11;100586.63;5073886;28;20048;-51
2023/01/20 00:09:00;;;;;;;43.15;17.35;;;;;;;1.04;98.47;100586.72;5074676;28;20063;-52
2023/01/20 00:11:27;;;;;;;48.25;18.20;;;;;;;1.21;97.59;100579.56;5075638;28;20048;-51
2023/01/20 00:13:57;;;;;;;48.15;17.77;;;;;;;1.17;97.34;100594.63;5075814;28;20071;-50
2023/01/20 00:16:24;;;;;;;47.95;18.00;;;;;;;1.23;96.64;100594.22;5075638;28;20044;-52
2023/01/20 00:18:52;;;;;;;44.08;17.42;;;;;;;1.14;97.68;100600.03;5075637;28;20064;-52
2023/01/20 00:21:20;;;;;;;42.15;16.98;;;;;;;1.05;97.92;100593.59;5075364;28;20045;-50
2023/01/20 00:23:47;;;;;;;37.70;16.23;;;;;;;1.03;98.04;100602.47;5075596;28;20127;-51
2023/01/20 00:26:16;;;;;;;41.08;17.15;;;;;;;1.06;97.52;100602.28;5075299;28;20052;-52
2023/01/20 00:28:44;;;;;;;44.00;17.13;;;;;;;1.10;97.58;100601.16;5075392;28;20032;-50
2023/01/20 00:31:15;;;;;;;39.17;16.80;;;;;;;1.20;97.32;100611.84;5075069;28;20049;-51
2023/01/20 00:33:42;;;;;;;42.40;17.13;;;;;;;1.19;97.19;100613.63;5075610;28;20044;-51
2023/01/20 00:36:11;;;;;;;46.83;18.33;;;;;;;1.10;97.19;100614.22;5074551;28;20053;-51
2023/01/20 00:38:38;;;;;;;45.17;17.42;;;;;;;1.06;97.08;100615.34;5075300;28;20501;-52
2023/01/20 00:41:06;;;;;;;44.42;17.45;;;;;;;1.01;96.99;100607.78;5074915;28;20040;-51
2023/01/20 00:43:33;;;;;;;47.92;16.55;;;;;;;1.27;96.89;100623.59;5075338;28;20549;-52
2023/01/20 00:45:59;;;;;;;41.50;16.95;;;;;;;1.10;96.99;100620.28;5073896;28;20041;-51
2023/01/20 00:48:26;;;;;;;41.75;16.08;;;;;;;1.01;96.90;100613.00;5073828;28;20080;-52
2023/01/20 00:50:53;;;;;;;40.53;17.30;;;;;;;1.02;97.12;100619.06;5074778;28;20052;-51
2023/01/20 00:53:20;;;;;;;42.15;16.98;;;;;;;0.85;97.68;100628.78;5068887;28;20048;-49
2023/01/20 00:55:47;;;;;;;46.15;16.92;;;;;;;0.77;98.92;100625.81;5073617;28;20040;-49
2023/01/20 00:58:13;;;;;;;42.90;18.40;;;;;;;0.75;98.70;100623.31;5074642;28;20044;-51
2023/01/20 01:00:40;;;;;;;46.72;17.95;;;;;;;0.97;98.31;100631.59;5075031;28;20072;-47
2023/01/20 01:03:09;;;;;;;45.65;17.23;;;;;;;0.88;98.17;100628.63;5074510;28;20052;-49
2023/01/20 01:05:36;;;;;;;49.25;16.98;;;;;;;0.79;98.45;100628.34;5074677;28;20047;-49
2023/01/20 01:08:04;;;;;;;53.03;19.98;;;;;;;0.82;97.91;100628.13;5073925;28;20098;-50
2023/01/20 01:10:31;;;;;;;40.45;14.93;;;;;;;0.77;98.34;100634.50;5074493;28;20050;-48
2023/01/20 01:13:00;;;;;;;49.08;18.15;;;;;;;0.98;97.97;100636.72;5074797;28;20398;-49
2023/01/20 01:15:27;;;;;;;48.05;18.65;;;;;;;0.90;96.87;100633.75;5074323;28;20440;-48
2023/01/20 01:17:55;;;;;;;53.00;19.73;;;;;;;0.77;98.57;100641.50;5074344;28;20075;-50
2023/01/20 01:20:23;;;;;;;52.80;20.65;;;;;;;0.84;98.45;100640.19;5073182;28;20059;-50
2023/01/20 01:22:50;;;;;;;48.45;19.15;;;;;;;0.82;97.77;100647.28;5074353;28;20497;-51
2023/01/20 01:25:16;;;;;;;48.53;19.55;;;;;;;0.76;98.30;100645.03;5074334;28;20052;-50
2023/01/20 01:27:43;;;;;;;56.83;20.15;;;;;;;0.90;98.27;100646.81;5074180;28;20098;-50
2023/01/20 01:30:11;;;;;;;57.50;21.65;;;;;;;0.77;98.05;100650.16;5074007;28;20090;-49
2023/01/20 01:32:37;;;;;;;53.70;20.08;;;;;;;0.75;98.19;100653.81;5072830;28;20049;-51
2023/01/20 01:35:04;;;;;;;57.90;20.98;;;;;;;0.63;98.26;100651.94;5073831;28;20067;-50
2023/01/20 01:37:31;;;;;;;58.95;22.67;;;;;;;0.68;98.98;100663.78;5073563;28;20053;-50
2023/01/20 01:39:58;;;;;;;58.05;22.92;;;;;;;0.53;98.70;100664.72;5074106;28;20067;-49
2023/01/20 01:42:25;;;;;;;58.10;21.75;;;;;;;0.57;98.95;100668.81;5074305;28;20055;-51
2023/01/20 01:45:17;;;;;;;61.95;22.52;;;;;;;0.56;99.10;100670.59;5073779;28;20516;-51
2023/01/20 01:47:54;;;;;;;55.95;20.08;;;;;;;0.53;98.82;100670.75;5073828;28;20563;-51
2023/01/20 01:50:26;;;;;;;60.67;23.45;;;;;;;0.56;99.26;100673.19;5073622;28;20048;-49
2023/01/20 01:52:55;;;;;;;67.05;23.52;;;;;;;0.56;99.56;100677.56;5073517;28;20052;-51
2023/01/20 01:55:27;;;;;;;58.85;23.10;;;;;;;0.52;99.39;100681.28;5073384;28;20460;-51
2023/01/20 01:57:55;;;;;;;65.70;23.02;;;;;;;0.58;100.00;100686.13;5074035;28;20048;-50
2023/01/20 02:00:22;;;;;;;69.07;25.15;;;;;;;0.52;99.84;100682.13;5073407;28;20053;-50
2023/01/20 02:02:50;;;;;;;69.95;24.75;;;;;;;0.69;99.93;100693.31;5073518;28;20448;-49
2023/01/20 02:05:18;;;;;;;75.30;23.00;;;;;;;0.68;99.82;100689.88;5073283;28;20383;-51
2023/01/20 02:07:46;;;;;;;62.47;24.35;;;;;;;0.55;99.28;100694.16;5071546;28;20492;-50
2023/01/20 02:10:14;;;;;;;66.75;25.02;;;;;;;0.62;100.00;100689.41;5073551;28;20037;-50
2023/01/20 02:12:46;;;;;;;73.60;25.63;;;;;;;0.57;99.42;100690.53;5073061;28;20093;-50
2023/01/20 02:15:13;;;;;;;67.03;24.92;;;;;;;0.54;99.84;100692.47;5073687;28;20127;-51
2023/01/20 02:18:14;;;;;;;68.43;25.35;;;;;;;0.55;99.94;100697.59;5073364;28;20493;-50
2023/01/20 02:21:13;;;;;;;61.45;23.80;;;;;;;0.72;100.00;100706.22;5073041;28;20083;-51
2023/01/20 02:24:19;;;;;;;56.30;22.65;;;;;;;0.52;99.67;100700.38;5072963;28;20060;-51
2023/01/20 02:26:58;;;;;;;59.88;22.95;;;;;;;0.56;100.00;100698.44;5071885;28;20127;-50
2023/01/20 02:29:59;;;;;;;59.78;22.67;;;;;;;0.62;100.00;100703.31;5073597;28;20048;-51
2023/01/20 02:32:37;;;;;;;63.93;21.60;;;;;;;0.65;100.00;100702.28;5072804;28;20514;-52
2023/01/20 02:35:11;;;;;;;51.22;19.77;;;;;;;0.59;99.46;100702.66;5073081;28;20052;-51
2023/01/20 02:38:03;;;;;;;53.10;19.77;;;;;;;0.70;99.68;100710.69;5073369;28;20556;-51
2023/01/20 02:40:45;;;;;;;51.07;20.57;;;;;;;0.79;99.51;100712.75;5073159;28;20045;-51
2023/01/20 02:43:37;;;;;;;53.17;19.77;;;;;;;0.81;99.26;100712.66;5073097;28;20444;-50
2023/01/20 02:46:35;;;;;;;56.53;20.13;;;;;;;0.77;98.34;100706.78;5072751;28;20041;-51
2023/01/20 02:49:26;;;;;;;53.70;19.70;;;;;;;0.72;98.51;100708.81;5073222;28;20386;-51
2023/01/20 02:52:02;;;;;;;52.88;19.83;;;;;;;0.67;98.63;100709.06;5072515;28;20075;-51
2023/01/20 02:54:34;;;;;;;55.78;20.02;;;;;;;0.62;99.08;100708.53;5062455;28;20056;-50
2023/01/20 02:57:04;;;;;;;51.53;19.77;;;;;;;0.73;98.74;100710.50;5072158;28;20048;-51
2023/01/20 02:59:35;;;;;;;49.88;18.98;;;;;;;0.59;98.39;100710.50;5071550;28;20094;-49
2023/01/20 03:02:07;;;;;;;52.00;18.42;;;;;;;0.57;99.38;100710.56;5073141;28;20401;-50
2023/01/20 03:04:37;;;;;;;;;;;;;;;0.56;99.13;100714.09;5072915;28;20044;-50
2023/01/20 03:07:08;;;;;;;44.55;17.05;;;;;;;0.63;99.48;100709.38;5072465;28;19951;-49
2023/01/20 03:09:40;;;;;;;48.38;18.15;;;;;;;0.75;99.10;100706.03;5072645;28;20064;-50
2023/01/20 03:12:14;;;;;;;48.10;18.52;;;;;;;0.87;98.69;100713.09;5071983;28;20486;-49
2023/01/20 03:14:41;;;;;;;54.25;18.77;;;;;;;0.95;98.84;100715.28;5072745;28;20083;-49
2023/01/20 03:17:08;;;;;;;47.45;19.77;;;;;;;1.05;98.59;100719.00;5073155;28;20048;-49
2023/01/20 03:19:35;;;;;;;46.55;17.33;;;;;;;1.06;98.17;100725.09;5072698;28;20048;-50
2023/01/20 03:22:02;;;;;;;46.22;18.25;;;;;;;1.09;96.90;100723.13;5072472;28;20033;-51
2023/01/20 03:24:31;;;;;;;44.53;18.40;;;;;;;1.00;96.67;100715.84;5072615;28;20040;-51
2023/01/20 03:26:58;;;;;;;46.78;16.85;;;;;;;1.20;96.08;100719.00;5071643;28;20501;-49
2023/01/20 03:29:25;;;;;;;46.10;18.20;;;;;;;1.17;96.27;100722.66;5073030;28;20044;-50
2023/01/20 03:31:57;;;;;;;44.70;18.88;;;;;;;1.22;96.36;100722.34;5072448;28;20048;-50
2023/01/20 03:34:24;;;;;;;;;;;;;;;1.27;96.37;100725.53;5073156;28;20059;-48
2023/01/20 03:36:53;;;;;;;43.88;16.80;;;;;;;1.23;96.31;100729.28;5072186;28;20356;-49
2023/01/20 03:39:22;;;;;;;46.63;17.75;;;;;;;1.25;96.39;100727.41;5072572;28;20074;-50
2023/01/20 03:42:18;;;;;;;46.05;18.85;;;;;;;1.37;95.54;100731.06;5072816;28;20040;-49
2023/01/20 03:48:16;;;;;;;49.58;20.73;;;;;;;1.25;96.29;100741.31;5150977;27;20194;-52
2023/01/20 03:53:44;;;;;;;55.58;19.70;;;;;;;1.06;97.38;100746.81;5104774;27;20442;-49
2023/01/20 03:56:35;;;;;;;53.65;21.13;;;;;;;0.99;97.37;100747.28;5090418;28;20452;-50
2023/01/20 03:59:05;;;;;;;51.50;20.42;;;;;;;1.05;97.72;100739.06;5090702;28;20582;-50
2023/01/20 04:01:37;;;;;;;52.33;20.73;;;;;;;1.09;97.64;100746.66;5090599;28;20140;-49
2023/01/20 04:04:08;;;;;;;49.73;20.13;;;;;;;0.87;98.22;100746.22;5090886;28;20051;-51
2023/01/20 04:06:38;;;;;;;57.50;22.42;;;;;;;0.94;98.41;100740.53;5090024;28;20407;-51
2023/01/20 04:09:09;;;;;;;52.15;21.17;;;;;;;1.02;98.79;100740.09;5090374;28;20040;-50
2023/01/20 04:11:35;;;;;;;51.75;21.63;;;;;;;1.04;97.94;100740.84;5090490;28;20043;-50
2023/01/20 04:14:02;;;;;;;58.58;21.92;;;;;;;1.09;98.47;100738.81;5090424;28;20059;-50
2023/01/20 04:16:29;;;;;;;53.15;21.15;;;;;;;1.12;98.20;100745.59;5089448;28;20490;-51
2023/01/20 04:18:57;;;;;;;58.83;21.90;;;;;;;1.04;98.14;100747.84;5090157;28;20559;-50
2023/01/20 04:21:31;;;;;;;57.50;21.67;;;;;;;0.98;97.43;100751.66;5090383;28;20048;-52
2023/01/20 04:24:24;;;;;;;56.03;22.23;;;;;;;1.02;97.84;100752.31;5090181;28;20049;-52
2023/01/20 04:26:51;;;;;;;53.40;21.23;;;;;;;0.94;97.98;100750.16;5090270;28;20040;-52
2023/01/20 04:29:19;;;;;;;51.15;20.02;;;;;;;1.01;97.78;100748.88;5090063;28;20135;-51
2023/01/20 04:31:45;;;;;;;58.05;20.75;;;;;;;0.97;97.29;100759.59;5090008;28;20048;-51
2023/01/20 04:34:14;;;;;;;53.30;20.70;;;;;;;1.08;97.53;100765.03;5090155;28;20508;-49
2023/01/20 04:36:41;;;;;;;52.38;21.13;;;;;;;0.91;97.33;100759.03;5089997;28;20040;-51
2023/01/20 04:39:08;;;;;;;53.15;20.38;;;;;;;0.99;97.58;100755.97;5090307;28;20094;-52
2023/01/20 04:41:34;;;;;;;53.33;20.15;;;;;;;1.03;97.05;100754.00;5089890;28;20049;-51
2023/01/20 04:44:01;;;;;;;55.88;21.13;;;;;;;1.03;97.73;100770.50;5090123;28;20040;-50
2023/01/20 04:46:28;;;;;;;52.35;20.90;;;;;;;1.00;97.70;100765.50;5089400;28;20413;-51
2023/01/20 04:48:54;;;;;;;47.60;20.30;;;;;;;1.05;97.66;100755.56;5089669;28;20040;-50
2023/01/20 04:51:22;;;;;;;49.75;20.98;;;;;;;1.10;98.06;100766.59;5089140;28;20060;-50
2023/01/20 04:53:48;;;;;;;50.30;19.60;;;;;;;1.19;97.25;100767.00;5086313;28;20095;-50
2023/01/20 04:56:16;;;;;;;57.75;21.60;;;;;;;1.22;97.26;100772.88;5082390;28;20495;-51
2023/01/20 04:58:42;;;;;;;52.33;20.25;;;;;;;1.22;97.31;100778.09;5088061;28;20589;-50
2023/01/20 05:01:09;;;;;;;47.92;20.20;;;;;;;1.21;97.85;100767.72;5088756;28;20051;-50
2023/01/20 05:03:36;;;;;;;49.75;20.90;;;;;;;1.17;97.13;100764.47;5081838;28;20379;-49
2023/01/20 05:06:05;;;;;;;50.33;19.33;;;;;;;1.15;97.11;100775.00;5075609;28;20044;-48
2023/01/20 05:08:32;;;;;;;48.22;19.48;;;;;;;1.19;97.01;100782.66;5075285;28;20397;-48
2023/01/20 05:10:58;;;;;;;48.25;19.80;;;;;;;1.01;97.52;100784.59;5075618;28;20044;-48
2023/01/20 05:13:25;;;;;;;46.60;18.95;;;;;;;0.96;97.66;100779.66;5076022;28;20072;-48
2023/01/20 05:15:52;;;;;;;46.30;19.65;;;;;;;0.88;97.78;100787.09;5075488;28;20118;-52
2023/01/20 05:18:18;;;;;;;52.88;19.17;;;;;;;1.03;98.37;100783.56;5075715;28;20045;-49
2023/01/20 05:20:47;;;;;;;49.00;18.95;;;;;;;1.10;97.07;100786.66;5075285;28;20059;-48
2023/01/20 05:23:15;;;;;;;55.92;19.60;;;;;;;0.94;98.26;100789.34;5075858;28;20072;-50
2023/01/20 05:25:48;;;;;;;47.45;18.58;;;;;;;1.04;97.78;100800.94;5075436;28;20048;-49
2023/01/20 05:28:14;;;;;;;51.70;20.00;;;;;;;0.84;98.32;100804.72;5075664;28;20040;-48
2023/01/20 05:30:41;;;;;;;46.28;17.80;;;;;;;0.85;97.53;100808.19;5075463;28;20098;-48
2023/01/20 05:33:08;;;;;;;49.83;19.95;;;;;;;0.89;97.60;100801.84;5075355;28;20040;-48
2023/01/20 05:35:37;;;;;;;44.00;19.50;;;;;;;0.92;97.40;100805.09;5075163;28;20490;-48
2023/01/20 05:38:03;;;;;;;46.05;18.38;;;;;;;0.92;97.81;100812.09;5074919;28;20044;-51
2023/01/20 05:40:30;;;;;;;41.70;18.50;;;;;;;1.08;96.96;100804.22;5075819;28;20462;-48
2023/01/20 05:42:59;;;;;;;45.22;18.67;;;;;;;0.95;97.25;100811.94;5075260;28;20037;-48
2023/01/20 05:45:26;;;;;;;45.45;18.05;;;;;;;1.01;96.43;100802.91;5075311;28;20552;-48
2023/01/20 05:47:55;;;;;;;42.13;17.65;;;;;;;1.09;96.83;100803.25;5075151;28;20044;-49
2023/01/20 05:50:21;;;;;;;44.35;18.35;;;;;;;1.05;96.27;100805.22;5074764;28;20044;-49
2023/01/20 05:52:48;;;;;;;40.70;17.08;;;;;;;0.93;96.39;100812.03;5074456;28;20040;-48
2023/01/20 05:55:16;;;;;;;43.38;16.92;;;;;;;0.93;96.52;100817.25;5073643;28;20048;-49
2023/01/20 05:57:42;;;;;;;47.38;16.67;;;;;;;1.07;97.07;100819.03;5073729;28;20040;-49
2023/01/20 06:00:11;;;;;;;39.45;16.92;;;;;;;1.05;95.69;100827.91;5074538;28;20044;-50
2023/01/20 06:02:38;;;;;;;45.72;17.63;;;;;;;1.11;96.17;100828.38;5075216;28;20090;-50
2023/01/20 06:05:06;;;;;;;37.75;17.40;;;;;;;1.20;96.43;100839.22;5074794;28;20122;-51
2023/01/20 06:07:33;;;;;;;40.08;16.25;;;;;;;1.00;95.91;100840.38;5073905;28;20383;-51
2023/01/20 06:09:59;;;;;;;39.72;16.08;;;;;;;0.90;96.18;100838.31;5074559;28;20075;-51
2023/01/20 06:12:26;;;;;;;42.00;17.48;;;;;;;0.90;96.90;100840.09;5073196;28;20044;-51
2023/01/20 06:14:52;;;;;;;42.97;16.23;;;;;;;1.00;96.77;100845.63;5073410;28;20064;-52
2023/01/20 06:17:19;;;;;;;49.05;19.13;;;;;;;1.07;96.93;100842.53;5074207;28;20462;-50
2023/01/20 06:19:46;;;;;;;47.83;17.45;;;;;;;1.11;96.67;100844.06;5074508;28;20074;-51
2023/01/20 06:22:14;;;;;;;45.55;18.00;;;;;;;1.29;96.32;100839.53;5073109;28;20041;-51
2023/01/20 06:24:41;;;;;;;47.13;17.80;;;;;;;1.34;96.22;100836.63;5074471;28;20450;-50
2023/01/20 06:27:09;;;;;;;48.47;17.25;;;;;;;1.24;95.44;100846.78;5074290;28;20114;-51
2023/01/20 06:29:35;;;;;;;44.33;16.80;;;;;;;1.32;95.62;100836.72;5074181;28;20131;-51
2023/01/20 06:32:03;;;;;;;44.80;17.55;;;;;;;1.36;94.66;100847.81;5074280;28;20055;-51
2023/01/20 06:34:30;;;;;;;45.67;18.48;;;;;;;1.37;95.50;100853.91;5074152;28;20102;-51
2023/01/20 06:36:57;;;;;;;39.67;17.95;;;;;;;1.46;95.07;100848.97;5074091;28;20437;-51
2023/01/20 06:39:23;;;;;;;42.72;18.08;;;;;;;1.54;94.54;100851.09;5074175;28;20040;-50
2023/01/20 06:41:50;;;;;;;45.85;18.40;;;;;;;1.58;94.79;100860.44;5073789;28;20367;-50
2023/01/20 06:44:17;;;;;;;38.88;17.02;;;;;;;1.53;94.60;100862.50;5074128;28;20052;-50
2023/01/20 06:46:43;;;;;;;42.03;18.02;;;;;;;1.60;94.58;100865.56;5073474;28;20048;-52
2023/01/20 06:49:13;;;;;;;42.40;18.17;;;;;;;1.62;92.95;100864.56;5073594;28;20553;-50
2023/01/20 06:51:40;;;;;;;51.25;18.00;;;;;;;1.61;94.17;100862.88;5072792;28;20055;-50
2023/01/20 06:54:07;;;;;;;40.38;17.80;;;;;;;1.60;93.70;100866.44;5072343;28;20041;-49
2023/01/20 06:56:34;;;;;;;42.95;17.98;;;;;;;1.60;92.63;100870.81;5063907;28;20514;-50
2023/01/20 06:59:01;;;;;;;40.40;17.85;;;;;;;1.50;92.81;100867.91;5072521;28;20102;-50
2023/01/20 07:01:29;;;;;;;47.72;18.50;;;;;;;1.40;93.43;100877.22;5071385;28;20048;-50
2023/01/20 07:03:57;;;;;;;42.90;18.75;;;;;;;1.32;93.67;100877.69;5073465;28;20040;-50
2023/01/20 07:06:34;;;;;;;51.72;19.20;;;;;;;1.34;93.50;100881.06;5065422;28;20176;-50
2023/01/20 07:09:01;;;;;;;47.60;19.25;;;;;;;1.36;93.90;100880.97;5072602;28;20127;-50
2023/01/20 07:11:30;;;;;;;53.25;19.65;;;;;;;1.14;94.08;100884.84;5073141;28;20139;-51
2023/01/20 07:13:57;;;;;;;56.63;20.80;;;;;;;1.07;95.17;100883.53;5073252;28;20040;-50
2023/01/20 07:16:23;;;;;;;42.22;19.10;;;;;;;1.09;95.05;100886.88;5073493;28;20045;-52
2023/01/20 07:18:51;;;;;;;43.33;18.48;;;;;;;1.14;94.35;100892.69;5073580;28;20124;-49
2023/01/20 07:21:18;;;;;;;42.05;18.08;;;;;;;1.10;94.10;100888.56;5072954;28;20131;-50
2023/01/20 07:23:47;;;;;;;45.63;19.83;;;;;;;0.88;94.76;100888.97;5073513;28;20055;-50
2023/01/20 07:26:17;;;;;;;50.08;20.77;;;;;;;0.92;94.54;100898.31;5072928;28;20136;-49
2023/01/20 07:28:44;;;;;;;48.53;19.73;;;;;;;0.90;94.84;100900.19;5073473;28;20054;-50
2023/01/20 07:31:13;;;;;;;46.60;20.05;;;;;;;0.97;95.78;100901.50;5072081;28;20049;-50
2023/01/20 07:33:40;;;;;;;47.38;18.30;;;;;;;1.03;95.22;100902.91;5073349;28;20053;-50
2023/01/20 07:36:09;;;;;;;45.80;20.45;;;;;;;1.16;94.03;100914.34;5072982;28;20045;-50
2023/01/20 07:38:36;;;;;;;49.67;21.30;;;;;;;1.18;94.48;100915.09;5043771;28;20946;-51
2023/01/20 07:41:06;;;;;;;47.35;19.40;;;;;;;1.21;93.65;100909.69;5060547;28;20109;-51
2023/01/20 07:43:33;;;;;;;53.88;20.63;;;;;;;1.20;94.26;100913.25;5070874;28;20093;-51
2023/01/20 07:46:02;;;;;;;46.70;20.17;;;;;;;1.19;94.19;100910.72;5069649;28;20106;-50
2023/01/20 07:48:31;;;;;;;50.80;18.80;;;;;;;1.23;93.63;100920.88;5063171;28;20102;-50
2023/01/20 07:51:01;;;;;;;53.38;22.13;;;;;;;1.01;93.88;100920.47;5064973;28;20060;-51
2023/01/20 07:53:29;;;;;;;61.65;21.63;;;;;;;1.01;94.55;100930.91;5057608;28;20082;-51
2023/01/20 07:56:00;;;;;;;57.45;20.48;;;;;;;1.12;94.23;100929.34;5056369;28;20584;-51
2023/01/20 07:58:28;;;;;;;50.23;20.57;;;;;;;1.00;93.73;100939.66;5064087;28;20041;-50
2023/01/20 08:00:54;;;;;;;67.30;22.70;;;;;;;1.07;94.55;100936.59;5057963;28;20751;-51
2023/01/20 08:03:22;;;;;;;60.25;21.33;;;;;;;1.02;95.75;100941.28;5071196;28;20429;-52
2023/01/20 08:05:49;;;;;;;61.35;23.23;;;;;;;1.08;95.02;100942.69;5061863;28;20041;-51
2023/01/20 08:08:16;;;;;;;54.63;23.13;;;;;;;1.13;96.49;100944.13;5057931;28;20083;-51
2023/01/20 08:10:43;;;;;;;56.90;23.20;;;;;;;1.29;94.85;100945.81;5045537;28;20652;-52
2023/01/20 08:13:10;;;;;;;60.47;23.85;;;;;;;1.24;94.77;100950.50;5057860;28;20036;-50
2023/01/20 08:15:37;;;;;;;73.07;23.98;;;;;;;1.28;93.93;100952.00;5027461;28;20058;-51
2023/01/20 08:18:03;;;;;;;60.10;23.75;;;;;;;1.42;93.15;100953.78;5058870;28;20504;-51
2023/01/20 08:20:30;;;;;;;56.35;24.45;;;;;;;1.22;93.92;100957.56;5049782;28;20067;-51
2023/01/20 08:22:56;;;;;;;65.00;24.42;;;;;;;1.10;94.09;100951.28;5049887;28;20048;-52
2023/01/20 08:25:23;;;;;;;54.20;23.17;;;;;;;0.94;94.39;100962.59;5059868;28;20058;-51
2023/01/20 08:27:50;;;;;;;58.33;23.38;;;;;;;1.06;95.10;100968.06;5069463;28;20037;-51
2023/01/20 08:30:17;;;;;;;51.40;22.17;;;;;;;1.12;95.34;100965.09;5064756;28;20080;-50
2023/01/20 08:32:44;;;;;;;55.75;22.42;;;;;;;1.10;94.68;100975.63;5051652;28;20111;-52
2023/01/20 08:35:11;;;;;;;54.78;23.27;;;;;;;1.11;93.04;100973.84;5069887;28;20048;-51
2023/01/20 08:37:37;;;;;;;56.90;22.58;;;;;;;1.01;93.22;100986.59;5064462;28;20040;-52
2023/01/20 08:40:08;;;;;;;57.65;23.88;;;;;;;1.10;94.74;100974.81;5051087;28;20142;-50
2023/01/20 08:42:36;;;;;;;56.72;23.83;;;;;;;1.03;94.90;100976.06;5045821;28;20056;-51
2023/01/20 08:45:06;;;;;;;59.78;23.83;;;;;;;1.12;94.79;100978.16;5067871;28;20647;-51
2023/01/20 08:47:37;;;;;;;60.75;23.20;;;;;;;1.22;94.20;100978.47;5055087;28;20061;-49
2023/01/20 08:50:06;;;;;;;52.30;22.75;;;;;;;1.38;94.66;100978.44;5057629;28;20065;-50
2023/01/20 08:52:33;;;;;;;52.97;20.83;;;;;;;1.51;93.46;100992.47;5057763;28;20106;-52
2023/01/20 08:55:00;;;;;;;49.92;19.92;;;;;;;1.54;93.08;100987.06;5064287;28;20052;-52
2023/01/20 08:57:27;;;;;;;52.47;20.20;;;;;;;1.45;91.41;100969.31;5054271;28;20512;-52
2023/01/20 08:59:54;;;;;;;47.20;19.63;;;;;;;1.58;91.90;100988.56;5065260;28;20068;-51
2023/01/20 09:02:23;;;;;;;51.95;20.88;;;;;;;1.61;90.11;100995.41;5069528;28;20090;-51
2023/01/20 09:04:51;;;;;;;48.45;19.85;;;;;;;1.55;91.50;100988.78;5041964;28;20178;-52
2023/01/20 09:07:19;;;;;;;49.72;19.60;;;;;;;1.50;91.29;100999.47;5049822;28;20465;-51
2023/01/20 09:09:46;;;;;;;47.25;19.63;;;;;;;1.43;91.77;100990.31;5062394;28;20794;-51
2023/01/20 09:12:12;;;;;;;45.92;19.58;;;;;;;1.41;90.62;101001.81;5055348;28;20105;-51
2023/01/20 09:14:39;;;;;;;49.03;19.77;;;;;;;1.41;92.20;101004.41;5060420;28;20074;-52
2023/01/20 09:17:06;;;;;;;44.45;20.42;;;;;;;1.44;90.93;101002.47;5072873;28;20382;-50
2023/01/20 09:19:33;;;;;;;47.70;17.27;;;;;;;1.41;91.38;101002.63;5063591;28;20568;-50
2023/01/20 09:21:59;;;;;;;48.03;18.17;;;;;;;1.36;91.65;101009.06;5052406;28;20470;-52
2023/01/20 09:24:26;;;;;;;50.30;20.25;;;;;;;1.28;92.05;100999.06;5038632;28;20036;-49
2023/01/20 09:26:52;;;;;;;48.35;21.02;;;;;;;1.41;93.00;100991.34;5051290;28;20064;-52
2023/01/20 09:29:20;;;;;;;51.58;20.25;;;;;;;1.59;92.43;100987.66;5062652;28;20135;-49
2023/01/20 09:31:50;;;;;;;51.92;20.13;;;;;;;1.76;91.47;100994.50;5059879;28;20044;-51
2023/01/20 09:34:20;;;;;;;50.90;20.50;;;;;;;1.84;90.77;101001.91;5065540;28;20067;-50
2023/01/20 09:36:53;;;;;;;51.67;19.65;;;;;;;1.92;89.90;101002.28;5054548;28;20040;-50
2023/01/20 09:45:26;;;;;;;47.80;19.08;;;;;;;2.12;89.65;101008.94;5064107;28;20063;-51
2023/01/20 09:48:13;;;;;;;48.45;19.73;;;;;;;2.09;87.91;101003.88;5056455;28;20040;-50
2023/01/20 09:53:49;;;;;;;46.75;20.20;;;;;;;1.96;88.17;101003.75;5050901;28;20128;-51
2023/01/20 09:56:20;;;;;;;46.15;18.60;;;;;;;2.10;87.89;101006.41;5054680;28;20047;-51
2023/01/20 09:59:13;;;;;;;44.88;19.45;;;;;;;2.05;88.87;101012.84;5068648;28;20056;-51
2023/01/20 10:01:48;;;;;;;49.80;18.25;;;;;;;2.01;88.96;101011.34;5069012;28;20509;-51
2023/01/20 10:04:26;;;;;;;39.28;18.40;;;;;;;2.02;88.55;101005.16;5043431;28;20119;-51
2023/01/20 10:07:22;;;;;;;38.45;17.42;;;;;;;2.12;88.41;101014.16;5060227;28;20045;-48
2023/01/20 10:10:01;;;;;;;40.10;16.23;;;;;;;2.22;87.21;101006.56;5060654;28;20037;-49
2023/01/20 10:12:37;;;;;;;37.05;17.30;;;;;;;2.13;86.58;101013.25;5052311;28;20048;-50
2023/01/20 10:15:15;;;;;;;38.58;16.42;;;;;;;2.06;86.22;101015.38;5053391;28;20171;-52
2023/01/20 10:17:53;;;;;;;39.97;17.33;;;;;;;2.21;86.96;101013.59;5052680;28;20048;-50
2023/01/20 10:20:32;;;;;;;38.90;17.00;;;;;;;2.24;85.21;101008.19;5063769;28;20052;-52
2023/01/20 10:23:14;;;;;;;44.08;15.77;;;;;;;2.36;85.61;101001.34;5062217;28;20037;-50
2023/01/20 10:25:51;;;;;;;39.47;17.15;;;;;;;2.47;86.38;101003.28;5061310;28;20052;-50
2023/01/20 10:28:26;;;;;;;39.97;16.83;;;;;;;2.50;86.32;101003.94;5062530;28;20043;-50
2023/01/20 10:30:56;;;;;;;40.97;17.00;;;;;;;2.49;85.90;101002.28;5056643;28;20075;-51
2023/01/20 10:33:29;;;;;;;41.15;16.05;;;;;;;2.53;85.71;101004.69;5064420;28;20120;-51
2023/01/20 10:35:58;;;;;;;37.50;16.27;;;;;;;2.48;84.55;101005.81;5060528;28;20509;-50
2023/01/20 10:38:51;;;;;;;36.42;15.45;;;;;;;2.23;86.27;101006.50;5059502;28;20080;-49
2023/01/20 10:41:31;;;;;;;33.90;16.13;;;;;;;2.35;85.80;100998.81;5030299;28;20052;-50
2023/01/20 10:43:59;;;;;;;37.70;15.65;;;;;;;2.46;85.79;101001.63;5052856;28;20082;-51
2023/01/20 10:46:48;;;;;;;33.30;14.98;;;;;;;2.37;84.49;100999.59;5065933;28;20048;-51
2023/01/20 10:49:40;;;;;;;37.08;14.98;;;;;;;2.43;86.11;100996.56;5068917;28;20036;-51
2023/01/20 10:52:37;;;;;;;38.30;15.13;;;;;;;2.58;85.68;100990.38;5060875;28;20133;-51
2023/01/20 10:58:32;;;;;;;34.15;13.32;;;;;;;2.62;84.64;100993.63;5073382;27;20414;-50
2023/01/20 11:01:03;;;;;;;41.17;13.40;;;;;;;2.55;83.71;100989.72;5092511;28;20044;-51
2023/01/20 11:03:35;;;;;;;28.98;13.05;;;;;;;2.67;82.83;100992.44;5103031;28;20040;-51
2023/01/20 11:06:03;;;;;;;39.63;13.88;;;;;;;2.56;83.58;100992.25;5092125;28;20480;-49
2023/01/20 11:08:30;;;;;;;27.65;12.85;;;;;;;2.57;83.66;101000.97;5096345;28;20050;-48
2023/01/20 11:11:08;;;;;;;29.95;13.35;;;;;;;2.68;83.56;100988.03;5102959;28;20086;-51
2023/01/20 11:13:34;;;;;;;27.92;11.90;;;;;;;2.71;83.51;100987.84;5099318;28;20127;-53
2023/01/20 11:16:10;;;;;;;31.83;12.30;;;;;;;2.80;83.15;100992.50;5080748;28;20078;-49
2023/01/20 11:18:37;;;;;;;32.55;12.40;;;;;;;2.76;81.97;100988.38;5096853;27;20051;-53
2023/01/20 11:21:07;;;;;;;31.92;12.10;;;;;;;2.59;83.06;100993.84;5084479;28;20450;-50
2023/01/20 11:23:38;;;;;;;30.90;13.10;;;;;;;2.79;81.98;100998.66;5099156;28;20051;-50
2023/01/20 11:26:30;;;;;;;29.83;12.75;;;;;;;2.72;80.79;100993.91;5091197;28;20044;-50
2023/01/20 11:29:20;;;;;;;26.60;12.43;;;;;;;2.77;80.73;100989.22;5100874;28;20060;-52
2023/01/20 11:31:51;;;;;;;33.03;12.63;;;;;;;2.73;80.68;100992.97;5094062;28;20139;-52
2023/01/20 11:34:25;;;;;;;30.05;13.48;;;;;;;2.71;81.26;100994.84;5100797;28;20046;-49
2023/01/20 11:37:15;;;;;;;35.05;13.60;;;;;;;2.90;82.23;100990.13;5096269;28;20670;-48
2023/01/20 11:39:57;;;;;;;31.27;11.88;;;;;;;2.92;81.08;100988.22;5084827;28;20047;-48
2023/01/20 11:42:28;;;;;;;28.70;12.73;;;;;;;2.81;82.00;101001.19;5069591;27;20075;-49
2023/01/20 11:45:01;;;;;;;30.75;12.27;;;;;;;2.59;82.17;100992.06;5053930;28;20036;-49
2023/01/20 11:47:59;;;;;;;27.90;12.10;;;;;;;2.78;82.81;100994.34;5050708;28;20146;-51
2023/01/20 11:50:32;;;;;;;32.50;12.98;;;;;;;2.60;82.03;100987.66;5059023;28;20049;-51
2023/01/20 11:53:23;;;;;;;25.52;11.57;;;;;;;2.62;83.58;100985.78;5053547;28;20068;-50